»·PEaware :: N1021M KAVQ-KBXK

N1021M :: KAVQ-KBXK

FLIGHT INFORMATION

Flight Status: Arrived
Operator: Privately registered:
United States
More flights under this callsign
Pilot: Matthew M. (27032)
Aircraft: CESSNA 172 SKYHAWK
(C172)
More flights by this aircraft type
Origin: KAVQ Marana Northwest Regl
United States
Destination: KBXK Buckeye Mun
United States
More flights between these airports :: More routes between these airports
Route:
File this flight plan on PilotEdge
Remarks:
Altitude:
(Current/Filed)
4,500ft
Speed:
(Current/Filed)
100kts
Departed: 23-Sep-20 09:30 AM
Arrived: 23-Sep-20 10:21 AM
Distance/Time
Traveled:
96nm/0:51
Distance/Time
To Go:
Arrived

Flight Plot

Page will automatically refresh every two minutes.

Flight plan parsing failed; only flown route is shown


Map Options




Map Legend


Flown Route
Filed Route
Departure Airport
Arrival Airport
Navaid (VOR, NDB)
Fix

Horizontal Profiles

Position Reports

Time Latitude Longitude Heading Altitude Ground
Speed
23-Sep-20 09:16 32.406507 -111.217228 310 2028ft 0kts
23-Sep-20 09:17 32.406507 -111.217228 310 2028ft 0kts
23-Sep-20 09:18 32.406507 -111.217228 310 2028ft 0kts
23-Sep-20 09:19 32.406507 -111.217228 310 2028ft 0kts
23-Sep-20 09:20 32.406507 -111.217228 310 2028ft 0kts
23-Sep-20 09:21 32.406507 -111.217228 310 2028ft 0kts
23-Sep-20 09:22 32.406507 -111.217228 310 2028ft 0kts
23-Sep-20 09:23 32.406507 -111.217228 310 2028ft 0kts
23-Sep-20 09:24 32.406507 -111.217228 310 2028ft 0kts
23-Sep-20 09:25 32.406671 -111.217312 22 2028ft 7kts
23-Sep-20 09:26 32.407112 -111.215795 138 2030ft 17kts
23-Sep-20 09:27 32.403572 -111.211517 88 2032ft 8kts
23-Sep-20 09:28 32.403621 -111.211285 64 2032ft 0kts
23-Sep-20 09:29 32.407376 -111.214282 313 2035ft 76kts
23-Sep-20 09:30 32.424285 -111.232993 317 2942ft 85kts
23-Sep-20 09:31 32.442580 -111.251609 317 3832ft 87kts
23-Sep-20 09:32 32.460972 -111.270089 317 4815ft 87kts
23-Sep-20 09:33 32.476563 -111.292297 317 5734ft 87kts
23-Sep-20 09:34 32.493487 -111.313352 320 6559ft 90kts
23-Sep-20 09:35 32.514939 -111.340137 313 6585ft 123kts
23-Sep-20 09:36 32.537163 -111.370942 314 6525ft 118kts
23-Sep-20 09:37 32.559359 -111.400210 314 6527ft 119kts
23-Sep-20 09:38 32.581588 -111.429489 314 6528ft 119kts
23-Sep-20 09:39 32.603836 -111.458764 314 6528ft 119kts
23-Sep-20 09:40 32.626101 -111.488034 314 6528ft 119kts
23-Sep-20 09:41 32.648424 -111.517359 314 6528ft 119kts
23-Sep-20 09:42 32.670731 -111.546629 314 6528ft 119kts
23-Sep-20 09:43 32.693048 -111.575827 314 6528ft 119kts
23-Sep-20 09:44 32.715252 -111.605132 314 6527ft 119kts
23-Sep-20 09:45 32.737441 -111.634517 314 6518ft 119kts
23-Sep-20 09:46 32.759543 -111.663726 314 6518ft 119kts
23-Sep-20 09:47 32.781708 -111.693020 314 6518ft 119kts
23-Sep-20 09:48 32.803955 -111.722330 314 6518ft 119kts
23-Sep-20 09:49 32.826189 -111.751476 314 6518ft 119kts
23-Sep-20 09:50 32.848405 -111.780550 314 6518ft 119kts
23-Sep-20 09:51 32.870687 -111.809741 314 6519ft 119kts
23-Sep-20 09:52 32.892980 -111.838976 314 6518ft 119kts
23-Sep-20 09:53 32.915249 -111.868057 314 6514ft 119kts
23-Sep-20 09:54 32.937577 -111.897177 314 6510ft 119kts
23-Sep-20 09:55 32.959889 -111.926235 314 6505ft 119kts
23-Sep-20 09:56 32.982244 -111.955311 314 6500ft 119kts
23-Sep-20 09:57 33.004637 -111.984388 314 6495ft 119kts
23-Sep-20 09:58 33.025478 -112.015144 308 6492ft 120kts
23-Sep-20 09:59 33.045138 -112.047335 308 6486ft 120kts
23-Sep-20 10:00 33.064604 -112.079786 307 6481ft 120kts
23-Sep-20 10:01 33.083950 -112.112211 307 6481ft 120kts
23-Sep-20 10:02 33.103359 -112.144797 307 6483ft 120kts
23-Sep-20 10:03 33.122750 -112.177354 308 6482ft 120kts
23-Sep-20 10:04 33.142069 -112.210117 306 6482ft 121kts
23-Sep-20 10:05 33.160905 -112.243353 306 6483ft 121kts
23-Sep-20 10:06 33.180303 -112.276238 307 6483ft 121kts
23-Sep-20 10:07 33.199746 -112.309075 307 6482ft 121kts
23-Sep-20 10:08 33.219148 -112.341873 307 6482ft 121kts
23-Sep-20 10:09 33.238529 -112.374659 307 6482ft 121kts
23-Sep-20 10:10 33.257924 -112.407502 307 6413ft 125kts
23-Sep-20 10:11 33.279381 -112.443777 307 5423ft 137kts
23-Sep-20 10:12 33.301443 -112.481196 307 4424ft 138kts
23-Sep-20 10:13 33.323568 -112.518762 306 3426ft 138kts
23-Sep-20 10:14 33.345600 -112.556208 306 2429ft 138kts
23-Sep-20 10:15 33.366185 -112.591265 305 2038ft 111kts
23-Sep-20 10:16 33.383523 -112.623024 285 2033ft 123kts
23-Sep-20 10:17 33.383218 -112.662417 267 2102ft 114kts
23-Sep-20 10:18 33.394729 -112.687528 19 1698ft 105kts
23-Sep-20 10:19 33.416012 -112.686488 2 998ft 58kts
23-Sep-20 10:20 33.420831 -112.684589 89 1009ft 7kts
23-Sep-20 10:21 33.420218 -112.684066 86 1009ft 0kts
23-Sep-20 10:22 33.420218 -112.684066 86 1009ft 0kts
23-Sep-20 10:23 33.420218 -112.684066 86 1009ft 0kts

Navigation Log

Ident Type
Flight plan parsing failed, navigation log unavailable